createdAt,value
2023-03-06T00:00:10.362Z,449.00
2023-03-06T00:01:10.386Z,450.00
2023-03-06T00:02:10.412Z,449.00
2023-03-06T00:03:10.463Z,448.00
2023-03-06T00:04:10.635Z,448.00
2023-03-06T00:05:10.538Z,448.00
2023-03-06T00:06:10.672Z,446.00
2023-03-06T00:07:10.611Z,445.00
2023-03-06T00:08:10.644Z,446.00
2023-03-06T00:09:10.708Z,445.00
2023-03-06T00:10:10.750Z,443.00
2023-03-06T00:11:10.769Z,445.00
2023-03-06T00:12:10.802Z,445.00
2023-03-06T00:13:10.843Z,443.00
2023-03-06T00:14:10.873Z,443.00
2023-03-06T00:15:10.909Z,444.00
2023-03-06T00:16:10.974Z,443.00
2023-03-06T00:17:10.997Z,445.00
2023-03-06T00:18:11.018Z,446.00
2023-03-06T00:19:11.055Z,446.00
2023-03-06T00:20:11.101Z,446.00
2023-03-06T00:21:11.141Z,445.00
2023-03-06T00:22:11.157Z,442.00
2023-03-06T00:23:11.167Z,440.00
2023-03-06T00:24:11.228Z,439.00
2023-03-06T00:25:11.234Z,440.00
2023-03-06T00:26:11.270Z,441.00
2023-03-06T00:27:11.331Z,443.00
2023-03-06T00:28:11.371Z,446.00
2023-03-06T00:29:11.390Z,448.00
2023-03-06T00:31:11.461Z,448.00
2023-03-06T00:32:11.542Z,449.00
2023-03-06T00:34:30.306Z,447.00
2023-03-06T00:35:30.322Z,446.00
2023-03-06T00:36:30.273Z,446.00
2023-03-06T00:37:30.266Z,446.00
2023-03-06T00:38:30.228Z,447.00
2023-03-06T00:39:30.216Z,445.00
2023-03-06T00:40:30.221Z,443.00
2023-03-06T00:41:30.214Z,443.00
2023-03-06T00:42:30.197Z,444.00
2023-03-06T00:43:30.192Z,445.00
2023-03-06T00:44:30.174Z,443.00
2023-03-06T00:45:30.285Z,441.00
2023-03-06T00:46:30.113Z,439.00
2023-03-06T00:47:30.128Z,441.00
2023-03-06T00:48:30.135Z,441.00
2023-03-06T00:49:30.100Z,442.00
2023-03-06T00:50:30.109Z,441.00
2023-03-06T00:51:30.080Z,441.00
2023-03-06T00:52:30.095Z,443.00
2023-03-06T00:53:30.062Z,443.00
2023-03-06T00:54:30.064Z,441.00
2023-03-06T00:55:30.050Z,440.00
2023-03-06T00:56:30.032Z,440.00
2023-03-06T00:57:30.015Z,440.00
2023-03-06T00:58:30.018Z,439.00
2023-03-06T00:59:30.010Z,438.00
2023-03-06T01:00:29.986Z,439.00
2023-03-06T01:01:29.977Z,440.00
2023-03-06T01:02:30.032Z,440.00
2023-03-06T01:03:29.888Z,441.00
2023-03-06T01:04:29.937Z,440.00
2023-03-06T01:05:29.906Z,442.00
2023-03-06T01:06:29.872Z,442.00
2023-03-06T01:07:29.820Z,439.00
2023-03-06T01:08:29.829Z,436.00
2023-03-06T01:16:29.754Z,432.00
2023-03-06T01:17:29.778Z,435.00
2023-03-06T01:18:29.695Z,436.00
2023-03-06T01:19:29.697Z,439.00
2023-03-06T01:20:29.696Z,440.00
2023-03-06T01:21:29.658Z,439.00
2023-03-06T01:22:29.664Z,439.00
2023-03-06T01:23:29.633Z,437.00
2023-03-06T01:24:29.700Z,436.00
2023-03-06T01:25:29.711Z,437.00
2023-03-06T01:26:29.730Z,435.00
2023-03-06T01:27:29.767Z,436.00
2023-03-06T01:28:29.798Z,436.00
2023-03-06T01:29:29.832Z,437.00
2023-03-06T01:42:32.078Z,436.00
2023-03-06T01:49:30.469Z,444.00
2023-03-06T01:51:30.556Z,442.00
2023-03-06T01:54:30.662Z,441.00
2023-03-06T02:15:31.336Z,442.00
2023-03-06T02:16:31.400Z,445.00
2023-03-06T02:24:31.586Z,442.00
2023-03-06T02:25:31.612Z,443.00
2023-03-06T02:26:31.652Z,442.00
2023-03-06T02:27:31.663Z,444.00
2023-03-06T02:28:31.669Z,444.00
2023-03-06T02:29:31.656Z,443.00
2023-03-06T02:30:31.677Z,445.00
2023-03-06T02:31:31.650Z,443.00
2023-03-06T02:32:31.719Z,443.00
2023-03-06T02:33:31.734Z,442.00
2023-03-06T02:34:31.702Z,441.00
2023-03-06T02:35:31.729Z,441.00
2023-03-06T02:36:31.726Z,440.00
2023-03-06T02:37:31.686Z,441.00
2023-03-06T02:38:31.715Z,440.00
2023-03-06T02:39:31.722Z,438.00
2023-03-06T02:40:31.712Z,438.00
2023-03-06T02:41:31.703Z,440.00
2023-03-06T02:42:31.694Z,439.00
2023-03-06T02:43:31.742Z,441.00
2023-03-06T02:44:31.716Z,442.00
2023-03-06T02:45:31.719Z,441.00
2023-03-06T02:46:31.757Z,441.00
2023-03-06T02:47:31.707Z,442.00
2023-03-06T02:48:31.697Z,441.00
2023-03-06T02:49:31.672Z,440.00
2023-03-06T02:50:31.774Z,439.00
2023-03-06T02:51:31.676Z,438.00
2023-03-06T02:52:31.659Z,439.00
2023-03-06T02:53:31.689Z,440.00
2023-03-06T02:54:31.664Z,440.00
2023-03-06T02:55:31.713Z,441.00
2023-03-06T02:56:31.723Z,444.00
2023-03-06T02:57:31.724Z,445.00
2023-03-06T02:58:31.763Z,444.00
2023-03-06T02:59:31.745Z,442.00
2023-03-06T03:00:31.812Z,440.00
2023-03-06T03:01:31.871Z,443.00
2023-03-06T03:02:31.826Z,445.00
2023-03-06T03:03:31.877Z,444.00
2023-03-06T03:04:31.894Z,446.00
2023-03-06T03:05:31.874Z,445.00
2023-03-06T03:06:31.872Z,444.00
2023-03-06T03:07:31.862Z,445.00
2023-03-06T03:08:31.880Z,446.00
2023-03-06T03:09:31.870Z,446.00
2023-03-06T03:10:31.867Z,444.00
2023-03-06T03:11:31.846Z,443.00
2023-03-06T03:12:31.839Z,445.00
2023-03-06T03:13:31.847Z,446.00
2023-03-06T03:14:31.856Z,447.00
2023-03-06T03:15:31.859Z,447.00
2023-03-06T03:16:31.854Z,444.00
2023-03-06T03:17:31.867Z,444.00
2023-03-06T03:18:31.844Z,444.00
2023-03-06T03:19:31.858Z,442.00
2023-03-06T03:20:31.898Z,439.00
2023-03-06T03:21:31.881Z,438.00
2023-03-06T03:22:31.891Z,436.00
2023-03-06T03:23:31.900Z,435.00
2023-03-06T03:24:31.954Z,438.00
2023-03-06T03:25:31.931Z,437.00
2023-03-06T03:26:31.920Z,436.00
2023-03-06T03:27:31.927Z,434.00
2023-03-06T03:28:31.913Z,433.00
2023-03-06T03:29:31.902Z,437.00
2023-03-06T03:30:31.908Z,440.00
2023-03-06T03:31:31.975Z,440.00
2023-03-06T03:32:31.955Z,440.00
2023-03-06T03:33:31.937Z,440.00
2023-03-06T03:34:31.922Z,439.00
2023-03-06T03:35:31.985Z,439.00
2023-03-06T03:36:31.949Z,441.00
2023-03-06T03:37:31.976Z,439.00
2023-03-06T03:38:32.011Z,436.00
2023-03-06T03:39:32.033Z,438.00
2023-03-06T03:40:31.999Z,438.00
2023-03-06T03:41:32.034Z,440.00
2023-03-06T03:42:32.045Z,441.00
2023-03-06T03:43:32.064Z,442.00
2023-03-06T03:44:32.040Z,442.00
2023-03-06T03:45:32.077Z,442.00
2023-03-06T03:46:32.168Z,442.00
2023-03-06T03:47:32.086Z,442.00
2023-03-06T03:48:32.089Z,442.00
2023-03-06T03:49:32.127Z,441.00
2023-03-06T03:50:32.093Z,441.00
2023-03-06T03:51:32.095Z,443.00
2023-03-06T03:52:32.126Z,442.00
2023-03-06T03:53:32.122Z,442.00
2023-03-06T03:54:32.069Z,444.00
2023-03-06T03:55:32.089Z,442.00
2023-03-06T03:56:32.080Z,442.00
2023-03-06T03:57:32.083Z,443.00
2023-03-06T03:58:32.080Z,442.00
2023-03-06T03:59:32.076Z,445.00
2023-03-06T04:00:32.076Z,445.00
2023-03-06T04:01:32.080Z,444.00
2023-03-06T04:02:32.052Z,444.00
2023-03-06T04:03:32.044Z,442.00
2023-03-06T04:04:32.131Z,445.00
2023-03-06T04:05:32.048Z,447.00
2023-03-06T04:06:32.045Z,446.00
2023-03-06T04:07:32.035Z,444.00
2023-03-06T04:08:32.069Z,442.00
2023-03-06T04:09:32.077Z,441.00
2023-03-06T04:10:32.081Z,440.00
2023-03-06T04:11:32.126Z,440.00
2023-03-06T04:12:32.059Z,441.00
2023-03-06T04:13:32.062Z,443.00
2023-03-06T04:14:32.069Z,443.00
2023-03-06T04:15:32.083Z,445.00
2023-03-06T04:16:32.095Z,447.00
2023-03-06T04:17:32.087Z,446.00
2023-03-06T04:18:32.101Z,448.00
2023-03-06T04:19:32.107Z,448.00
2023-03-06T04:20:32.112Z,449.00
2023-03-06T04:21:32.081Z,448.00
2023-03-06T04:22:32.132Z,448.00
2023-03-06T04:23:32.141Z,448.00
2023-03-06T04:24:32.117Z,447.00
2023-03-06T04:25:32.161Z,447.00
2023-03-06T04:26:32.223Z,447.00
2023-03-06T04:27:32.107Z,449.00
2023-03-06T04:28:32.109Z,449.00
2023-03-06T04:29:32.200Z,449.00
2023-03-06T04:30:32.075Z,448.00
2023-03-06T04:31:32.142Z,446.00
2023-03-06T04:32:32.118Z,445.00
2023-03-06T04:33:32.098Z,448.00
2023-03-06T04:34:32.127Z,449.00
2023-03-06T04:35:32.151Z,449.00
2023-03-06T04:36:32.091Z,451.00
2023-03-06T04:37:32.090Z,450.00
2023-03-06T04:38:32.117Z,449.00
2023-03-06T04:39:32.083Z,448.00
2023-03-06T04:40:32.112Z,447.00
2023-03-06T04:41:32.132Z,447.00
2023-03-06T04:42:32.106Z,449.00
2023-03-06T04:43:32.133Z,450.00
2023-03-06T04:44:32.096Z,450.00
2023-03-06T04:45:32.135Z,450.00
2023-03-06T04:46:32.136Z,451.00
2023-03-06T04:47:32.146Z,449.00
2023-03-06T04:48:32.138Z,450.00
2023-03-06T04:49:32.141Z,448.00
2023-03-06T04:50:32.112Z,450.00
2023-03-06T04:51:32.123Z,454.00
2023-03-06T04:52:32.122Z,454.00
2023-03-06T04:53:32.140Z,452.00
2023-03-06T04:54:32.155Z,455.00
2023-03-06T04:55:32.133Z,456.00
2023-03-06T04:56:32.118Z,457.00
2023-03-06T04:57:32.137Z,456.00
2023-03-06T04:58:32.166Z,454.00
2023-03-06T05:00:32.158Z,454.00
2023-03-06T05:01:32.179Z,453.00
2023-03-06T05:02:32.219Z,454.00
2023-03-06T05:03:32.188Z,453.00
2023-03-06T05:04:32.201Z,451.00
2023-03-06T05:05:32.212Z,450.00
2023-03-06T05:08:32.199Z,445.00
2023-03-06T05:09:32.214Z,448.00
2023-03-06T05:10:32.226Z,447.00
2023-03-06T05:11:32.229Z,447.00
2023-03-06T05:12:32.233Z,448.00
2023-03-06T05:14:32.243Z,449.00
2023-03-06T05:15:32.238Z,450.00
2023-03-06T05:16:32.237Z,449.00
2023-03-06T05:17:32.230Z,449.00
2023-03-06T05:18:32.208Z,447.00
2023-03-06T05:19:32.200Z,447.00
2023-03-06T05:20:32.222Z,448.00
2023-03-06T05:21:32.253Z,447.00
2023-03-06T05:22:32.268Z,450.00
2023-03-06T05:23:32.230Z,450.00
2023-03-06T05:24:32.281Z,448.00
2023-03-06T05:25:32.306Z,449.00
2023-03-06T05:26:32.293Z,447.00
2023-03-06T05:27:32.332Z,446.00
2023-03-06T05:28:32.375Z,448.00
2023-03-06T05:29:32.384Z,447.00
2023-03-06T05:30:32.579Z,447.00
2023-03-06T05:31:32.488Z,447.00
2023-03-06T05:32:35.378Z,448.00
2023-03-06T05:33:32.546Z,448.00
2023-03-06T05:34:32.506Z,450.00
2023-03-06T05:35:32.548Z,452.00
2023-03-06T05:36:32.470Z,452.00
2023-03-06T05:37:32.514Z,453.00
2023-03-06T05:38:32.488Z,455.00
2023-03-06T05:39:32.457Z,456.00
2023-03-06T05:40:32.467Z,454.00
2023-03-06T05:41:32.436Z,453.00
2023-03-06T05:42:32.446Z,453.00
2023-03-06T05:43:32.418Z,453.00
2023-03-06T05:44:32.422Z,454.00
2023-03-06T05:45:32.454Z,456.00
2023-03-06T05:46:32.357Z,454.00
2023-03-06T05:47:32.375Z,452.00
2023-03-06T05:48:32.344Z,454.00
2023-03-06T05:49:32.304Z,453.00
2023-03-06T05:50:32.321Z,453.00
2023-03-06T05:51:32.312Z,454.00
2023-03-06T05:52:32.308Z,454.00
2023-03-06T05:54:32.256Z,454.00
2023-03-06T05:55:32.261Z,456.00
2023-03-06T05:56:32.227Z,455.00
2023-03-06T05:57:32.197Z,455.00
2023-03-06T05:58:32.192Z,454.00
2023-03-06T05:59:32.186Z,455.00
2023-03-06T06:00:32.155Z,454.00
2023-03-06T06:01:39.145Z,455.00
2023-03-06T06:02:32.157Z,454.00
2023-03-06T06:03:32.179Z,455.00
2023-03-06T06:04:32.126Z,456.00
2023-03-06T06:05:32.128Z,457.00
2023-03-06T06:06:32.083Z,457.00
2023-03-06T06:07:32.072Z,456.00
2023-03-06T06:08:32.087Z,453.00
2023-03-06T06:09:32.150Z,454.00
2023-03-06T06:10:33.066Z,454.00
2023-03-06T06:11:32.012Z,455.00
2023-03-06T06:12:32.085Z,458.00
2023-03-06T06:13:32.068Z,458.00
2023-03-06T06:14:31.952Z,458.00
2023-03-06T06:15:32.022Z,453.00
2023-03-06T06:16:31.981Z,450.00
2023-03-06T06:17:31.978Z,452.00
2023-03-06T06:18:31.886Z,452.00
2023-03-06T06:19:31.842Z,452.00
2023-03-06T06:20:31.872Z,455.00
2023-03-06T06:21:31.806Z,455.00
2023-03-06T06:22:31.778Z,458.00
2023-03-06T06:23:31.761Z,460.00
2023-03-06T06:24:31.726Z,461.00
2023-03-06T06:25:31.751Z,459.00
2023-03-06T06:26:31.784Z,457.00
2023-03-06T06:27:31.777Z,455.00
2023-03-06T06:28:31.780Z,455.00
2023-03-06T06:29:31.802Z,453.00
2023-03-06T06:30:31.810Z,452.00
2023-03-06T06:31:31.877Z,451.00
2023-03-06T06:32:31.866Z,455.00
2023-03-06T06:33:31.832Z,515.00
2023-03-06T06:34:31.794Z,511.00
2023-03-06T06:35:31.847Z,506.00
2023-03-06T06:36:31.806Z,505.00
2023-03-06T06:37:31.822Z,509.00
2023-03-06T06:38:31.800Z,513.00
2023-03-06T06:39:31.823Z,519.00
2023-03-06T06:40:31.794Z,529.00
2023-03-06T06:41:46.573Z,550.00
2023-03-06T06:42:39.004Z,563.00
2023-03-06T06:43:32.718Z,581.00
2023-03-06T06:44:31.728Z,628.00
2023-03-06T06:45:31.706Z,687.00
2023-03-06T06:47:20.888Z,691.00
2023-03-06T06:47:32.713Z,711.00
2023-03-06T06:48:31.640Z,759.00
2023-03-06T06:49:31.614Z,779.00
2023-03-06T06:50:31.603Z,851.00
2023-03-06T06:51:31.563Z,832.00
2023-03-06T06:52:31.549Z,848.00
2023-03-06T06:53:31.508Z,809.00
2023-03-06T06:54:31.443Z,868.00
2023-03-06T06:55:31.427Z,723.00
2023-03-06T06:56:31.382Z,733.00
2023-03-06T06:57:31.364Z,839.00
2023-03-06T06:58:31.322Z,839.00
2023-03-06T06:59:32.105Z,711.00
2023-03-06T07:00:31.265Z,711.00
2023-03-06T07:01:31.303Z,692.00
2023-03-06T07:02:31.202Z,695.00
2023-03-06T07:03:31.192Z,875.00
2023-03-06T07:04:31.134Z,896.00
2023-03-06T07:05:31.138Z,902.00
2023-03-06T07:06:31.135Z,906.00
2023-03-06T07:07:31.071Z,912.00
2023-03-06T07:08:31.026Z,917.00
2023-03-06T07:09:31.030Z,926.00
2023-03-06T07:10:30.954Z,937.00
2023-03-06T07:11:31.150Z,968.00
2023-03-06T07:12:30.906Z,990.00
2023-03-06T07:13:30.879Z,1009.00
2023-03-06T07:14:30.836Z,1023.00
2023-03-06T07:15:30.768Z,1050.00
2023-03-06T07:16:30.747Z,1072.00
2023-03-06T07:17:30.724Z,1091.00
2023-03-06T07:18:30.683Z,1108.00
2023-03-06T07:19:30.623Z,1143.00
2023-03-06T07:20:30.613Z,1173.00
2023-03-06T07:21:30.617Z,1196.00
2023-03-06T07:22:38.727Z,1210.00
2023-03-06T07:23:31.501Z,1231.00
2023-03-06T07:24:30.506Z,1257.00
2023-03-06T07:25:30.476Z,1270.00
2023-03-06T07:26:32.088Z,1285.00
2023-03-06T07:27:30.424Z,1309.00
2023-03-06T07:28:33.694Z,1318.00
2023-03-06T07:29:31.296Z,1336.00
2023-03-06T07:30:30.264Z,1358.00
2023-03-06T07:31:30.298Z,1376.00
2023-03-06T07:32:30.262Z,1394.00
2023-03-06T07:33:30.114Z,1414.00
2023-03-06T07:34:30.075Z,1434.00
2023-03-06T07:35:30.108Z,1460.00
2023-03-06T07:36:30.019Z,1469.00
2023-03-06T07:37:30.039Z,1482.00
2023-03-06T07:38:29.955Z,1485.00
2023-03-06T07:39:30.070Z,1458.00
2023-03-06T07:40:29.857Z,1424.00
2023-03-06T07:41:30.241Z,1408.00
2023-03-06T07:42:29.787Z,1492.00
2023-03-06T07:43:29.766Z,1536.00
2023-03-06T07:44:29.709Z,1540.00
2023-03-06T07:45:29.621Z,1560.00
2023-03-06T07:46:29.655Z,1570.00
2023-03-06T07:47:29.702Z,1563.00
2023-03-06T07:48:29.543Z,1556.00
2023-03-06T07:49:29.559Z,1555.00
2023-03-06T07:50:30.159Z,1556.00
2023-03-06T07:51:29.423Z,1554.00
2023-03-06T07:52:29.690Z,1570.00
2023-03-06T07:53:29.430Z,1581.00
2023-03-06T07:54:29.367Z,1589.00
2023-03-06T07:55:29.335Z,1599.00
2023-03-06T07:56:29.392Z,1610.00
2023-03-06T07:57:29.674Z,1612.00
2023-03-06T07:58:29.326Z,1625.00
2023-03-06T07:59:29.271Z,1628.00
2023-03-06T08:00:29.239Z,1637.00
2023-03-06T08:01:29.253Z,1652.00
2023-03-06T08:02:29.186Z,1654.00
2023-03-06T08:03:29.207Z,1657.00
2023-03-06T08:04:30.233Z,1662.00
2023-03-06T08:05:29.121Z,1667.00
2023-03-06T08:06:29.124Z,1666.00
2023-03-06T08:07:29.199Z,1667.00
2023-03-06T08:08:29.029Z,1676.00
2023-03-06T08:09:29.024Z,1686.00
2023-03-06T08:10:28.963Z,1698.00
2023-03-06T08:11:28.920Z,1702.00
2023-03-06T08:12:29.238Z,1714.00
2023-03-06T08:13:28.831Z,1720.00
2023-03-06T08:14:28.811Z,1716.00
2023-03-06T08:15:28.758Z,1725.00
2023-03-06T08:16:28.726Z,1731.00
2023-03-06T08:17:28.668Z,1735.00
2023-03-06T08:18:28.657Z,1732.00
2023-03-06T08:19:28.563Z,1724.00
2023-03-06T08:20:28.491Z,1718.00
2023-03-06T08:21:29.045Z,1748.00
2023-03-06T08:22:29.405Z,1747.00
2023-03-06T08:23:28.380Z,1739.00
2023-03-06T08:24:28.354Z,1739.00
2023-03-06T08:25:28.338Z,1748.00
2023-03-06T08:26:28.368Z,1747.00
2023-03-06T08:27:29.215Z,1752.00
2023-03-06T08:28:28.248Z,1754.00
2023-03-06T08:29:28.114Z,1739.00
2023-03-06T08:30:28.086Z,1735.00
2023-03-06T08:31:28.076Z,1479.00
2023-03-06T08:32:28.276Z,1448.00
2023-03-06T08:33:27.967Z,1588.00
2023-03-06T08:34:27.937Z,1529.00
2023-03-06T08:35:27.983Z,1523.00
2023-03-06T08:37:28.231Z,1451.00
2023-03-06T08:38:27.733Z,1458.00
2023-03-06T08:39:27.718Z,1484.00
2023-03-06T08:40:27.706Z,1439.00
2023-03-06T08:41:27.694Z,1528.00
2023-03-06T08:42:27.718Z,1543.00
2023-03-06T08:43:27.590Z,1547.00
2023-03-06T08:44:27.570Z,1091.00
2023-03-06T08:45:27.556Z,1069.00
2023-03-06T08:46:27.616Z,1076.00
2023-03-06T08:47:27.736Z,1037.00
2023-03-06T08:48:27.552Z,1206.00
2023-03-06T08:49:27.548Z,1257.00
2023-03-06T08:50:27.585Z,1143.00
2023-03-06T08:51:27.584Z,1138.00
2023-03-06T08:52:27.610Z,1127.00
2023-03-06T08:53:41.630Z,1127.00
2023-03-06T08:54:28.549Z,1204.00
2023-03-06T09:01:28.269Z,1178.00
2023-03-06T09:03:27.216Z,1206.00
2023-03-06T09:04:27.200Z,1197.00
2023-03-06T09:05:27.175Z,1206.00
2023-03-06T09:06:27.121Z,1299.00
2023-03-06T09:07:27.051Z,1284.00
2023-03-06T09:08:27.052Z,1297.00
2023-03-06T09:09:27.001Z,1290.00
2023-03-06T09:10:27.044Z,1302.00
2023-03-06T09:11:26.957Z,1302.00
2023-03-06T09:12:28.083Z,1389.00
2023-03-06T09:13:26.910Z,1422.00
2023-03-06T09:14:26.895Z,1399.00
2023-03-06T09:15:26.851Z,1393.00
2023-03-06T09:16:26.835Z,1389.00
2023-03-06T09:17:26.742Z,1389.00
2023-03-06T09:18:26.702Z,1391.00
2023-03-06T09:19:26.705Z,1422.00
2023-03-06T09:20:26.645Z,1453.00
2023-03-06T09:21:26.608Z,1449.00
2023-03-06T09:22:26.548Z,1469.00
2023-03-06T09:23:26.744Z,1486.00
2023-03-06T09:24:26.479Z,1521.00
2023-03-06T09:25:26.503Z,1545.00
2023-03-06T09:26:39.531Z,1578.00
2023-03-06T09:27:27.428Z,1710.00
2023-03-06T09:28:26.400Z,1714.00
2023-03-06T09:35:26.131Z,1518.00
2023-03-06T09:36:26.037Z,1485.00
2023-03-06T09:37:25.982Z,1457.00
2023-03-06T09:38:25.964Z,1164.00
2023-03-06T09:39:26.017Z,1316.00
2023-03-06T09:40:25.871Z,1335.00
2023-03-06T09:41:25.862Z,1329.00
2023-03-06T09:42:25.846Z,1317.00
2023-03-06T09:43:25.801Z,1307.00
2023-03-06T09:44:25.874Z,1296.00
2023-03-06T09:45:25.809Z,1291.00
2023-03-06T09:46:25.796Z,1268.00
2023-03-06T09:47:25.783Z,1249.00
2023-03-06T09:48:25.699Z,1229.00
2023-03-06T09:49:25.712Z,1196.00
2023-03-06T09:50:25.686Z,1027.00
2023-03-06T09:51:25.698Z,896.00
2023-03-06T09:52:25.701Z,854.00
2023-03-06T09:53:25.705Z,816.00
2023-03-06T09:54:25.808Z,810.00
2023-03-06T09:55:25.771Z,765.00
2023-03-06T09:56:25.787Z,788.00
2023-03-06T09:57:25.838Z,767.00
2023-03-06T09:58:25.848Z,723.00
2023-03-06T09:59:25.868Z,662.00
2023-03-06T10:00:25.866Z,662.00
2023-03-06T10:01:25.833Z,666.00
2023-03-06T10:02:25.964Z,675.00
2023-03-06T10:03:25.876Z,691.00
2023-03-06T10:04:25.813Z,728.00
2023-03-06T10:05:25.794Z,813.00
2023-03-06T10:06:25.790Z,800.00
2023-03-06T10:07:25.846Z,798.00
2023-03-06T10:08:25.927Z,804.00
2023-03-06T10:09:25.879Z,813.00
2023-03-06T10:10:25.932Z,855.00
2023-03-06T10:11:25.936Z,884.00
2023-03-06T10:12:25.956Z,904.00
2023-03-06T10:13:25.979Z,919.00
2023-03-06T10:14:25.985Z,919.00
2023-03-06T10:15:26.074Z,856.00
2023-03-06T10:16:26.016Z,987.00
2023-03-06T10:17:26.033Z,1042.00
2023-03-06T10:18:26.817Z,1048.00
2023-03-06T10:19:25.996Z,1044.00
2023-03-06T10:20:25.998Z,1063.00
2023-03-06T10:21:26.065Z,1121.00
2023-03-06T10:22:25.943Z,1120.00
2023-03-06T10:23:25.970Z,1124.00
2023-03-06T10:24:25.919Z,1153.00
2023-03-06T10:25:25.878Z,1210.00
2023-03-06T10:26:25.884Z,1207.00
2023-03-06T10:27:25.811Z,1209.00
2023-03-06T10:28:25.781Z,1255.00
2023-03-06T10:29:25.794Z,1269.00
2023-03-06T10:30:26.491Z,1277.00
2023-03-06T10:32:25.827Z,1292.00
2023-03-06T10:33:25.780Z,1344.00
2023-03-06T10:34:25.791Z,1354.00
2023-03-06T10:35:25.851Z,1362.00
2023-03-06T10:47:26.706Z,1329.00
2023-03-06T10:48:25.879Z,1133.00
2023-03-06T10:49:26.328Z,1069.00
2023-03-06T10:50:25.860Z,932.00
2023-03-06T10:51:25.861Z,837.00
2023-03-06T10:52:25.829Z,822.00
2023-03-06T10:53:25.819Z,797.00
2023-03-06T10:54:26.278Z,767.00
2023-03-06T10:55:25.824Z,718.00
2023-03-06T10:56:25.880Z,699.00
2023-03-06T10:57:25.970Z,700.00
2023-03-06T10:58:25.956Z,714.00
2023-03-06T10:59:25.989Z,722.00
2023-03-06T11:00:26.014Z,799.00
2023-03-06T11:01:26.027Z,791.00
2023-03-06T11:02:26.090Z,791.00
2023-03-06T11:03:26.097Z,791.00
2023-03-06T11:04:26.134Z,794.00
2023-03-06T11:05:26.147Z,801.00
2023-03-06T11:06:26.156Z,809.00
2023-03-06T11:07:26.197Z,827.00
2023-03-06T11:08:26.173Z,843.00
2023-03-06T11:09:26.218Z,854.00
2023-03-06T11:10:26.192Z,954.00
2023-03-06T11:14:27.694Z,980.00
2023-03-06T11:15:26.110Z,1028.00
2023-03-06T11:16:26.169Z,1026.00
2023-03-06T11:17:26.091Z,1032.00
2023-03-06T11:18:26.144Z,1044.00
2023-03-06T11:19:26.032Z,1077.00
2023-03-06T11:20:26.037Z,1090.00
2023-03-06T11:21:25.937Z,1105.00
2023-03-06T11:22:25.951Z,1016.00
2023-03-06T11:23:25.916Z,899.00
2023-03-06T11:24:25.928Z,864.00
2023-03-06T11:25:25.865Z,769.00
2023-03-06T11:26:25.879Z,766.00
2023-03-06T11:27:25.890Z,763.00
2023-03-06T11:28:28.817Z,763.00
2023-03-06T11:29:25.966Z,784.00
2023-03-06T11:30:25.845Z,831.00
2023-03-06T11:31:25.891Z,841.00
2023-03-06T11:32:25.925Z,859.00
2023-03-06T11:33:25.790Z,941.00
2023-03-06T11:34:25.814Z,972.00
2023-03-06T11:35:25.762Z,1001.00
2023-03-06T11:36:25.631Z,1039.00
2023-03-06T11:37:25.555Z,929.00
2023-03-06T11:38:25.529Z,908.00
2023-03-06T11:39:25.843Z,993.00
2023-03-06T11:40:25.459Z,1028.00
2023-03-06T11:41:25.434Z,1066.00
2023-03-06T11:42:25.449Z,1163.00
2023-03-06T11:43:25.358Z,1175.00
2023-03-06T11:44:25.804Z,1170.00
2023-03-06T11:45:25.272Z,1240.00
2023-03-06T11:46:25.376Z,1272.00
2023-03-06T11:47:25.234Z,1305.00
2023-03-06T11:48:25.164Z,1318.00
2023-03-06T11:49:25.313Z,1220.00
2023-03-06T11:50:25.094Z,1230.00
2023-03-06T11:51:24.996Z,1249.00
2023-03-06T11:52:24.946Z,1266.00
2023-03-06T11:53:24.931Z,1290.00
2023-03-06T11:54:24.866Z,1330.00
2023-03-06T11:55:24.854Z,1335.00
2023-03-06T11:56:24.817Z,1406.00
2023-03-06T11:57:24.751Z,1420.00
2023-03-06T11:58:24.691Z,1427.00
2023-03-06T11:59:24.693Z,1430.00
2023-03-06T12:00:24.860Z,1203.00
2023-03-06T12:01:24.636Z,927.00
2023-03-06T12:02:24.712Z,862.00
2023-03-06T12:03:24.525Z,808.00
2023-03-06T12:04:24.482Z,822.00
2023-03-06T12:05:24.554Z,809.00
2023-03-06T12:06:24.442Z,820.00
2023-03-06T12:07:24.413Z,832.00
2023-03-06T12:08:24.373Z,926.00
2023-03-06T12:09:24.351Z,959.00
2023-03-06T12:10:24.808Z,1028.00
2023-03-06T12:11:24.322Z,1041.00
2023-03-06T12:12:24.255Z,1053.00
2023-03-06T12:14:24.156Z,1075.00
2023-03-06T12:15:24.327Z,1084.00
2023-03-06T12:16:24.169Z,1121.00
2023-03-06T12:17:24.074Z,1132.00
2023-03-06T12:18:24.110Z,1146.00
2023-03-06T12:19:23.980Z,1159.00
2023-03-06T12:20:24.321Z,1166.00
2023-03-06T12:21:23.914Z,1173.00
2023-03-06T12:22:23.861Z,1189.00
2023-03-06T12:23:23.914Z,1212.00
2023-03-06T12:24:23.766Z,1226.00
2023-03-06T12:25:23.830Z,1234.00
2023-03-06T12:26:23.729Z,1238.00
2023-03-06T12:27:23.645Z,1247.00
2023-03-06T12:28:23.616Z,1299.00
2023-03-06T12:29:23.558Z,1279.00
2023-03-06T12:30:23.827Z,1135.00
2023-03-06T12:31:23.547Z,1093.00
2023-03-06T12:32:23.482Z,1150.00
2023-03-06T12:34:23.401Z,1081.00
2023-03-06T12:35:23.848Z,1166.00
2023-03-06T12:36:23.415Z,1172.00
2023-03-06T12:37:23.419Z,1167.00
2023-03-06T12:38:23.464Z,1158.00
2023-03-06T12:39:23.429Z,1146.00
2023-03-06T12:40:23.818Z,1130.00
2023-03-06T12:41:23.428Z,1110.00
2023-03-06T12:42:23.922Z,1094.00
2023-03-06T12:43:23.395Z,1081.00
2023-03-06T12:44:23.357Z,1078.00
2023-03-06T12:45:23.316Z,1074.00
2023-03-06T12:46:23.373Z,1073.00
2023-03-06T12:47:23.265Z,1073.00
2023-03-06T12:48:23.273Z,1070.00
2023-03-06T12:49:31.516Z,1067.00
2023-03-06T12:50:24.216Z,1043.00
2023-03-06T12:51:23.154Z,1025.00
2023-03-06T12:52:29.549Z,1020.00
2023-03-06T12:53:24.088Z,1020.00
2023-03-06T12:54:23.031Z,1007.00
2023-03-06T12:55:25.722Z,999.00
2023-03-06T12:56:22.963Z,986.00
2023-03-06T12:57:22.926Z,979.00
2023-03-06T12:58:22.898Z,968.00
2023-03-06T12:59:22.857Z,964.00
2023-03-06T13:00:22.839Z,958.00
2023-03-06T13:01:22.785Z,952.00
2023-03-06T13:02:22.762Z,945.00
2023-03-06T13:03:22.726Z,944.00
2023-03-06T13:04:22.680Z,921.00
2023-03-06T13:05:22.670Z,898.00
2023-03-06T13:06:22.621Z,890.00
2023-03-06T13:07:22.585Z,889.00
2023-03-06T13:08:22.535Z,886.00
2023-03-06T13:09:22.485Z,885.00
2023-03-06T13:10:22.465Z,886.00
2023-03-06T13:11:22.432Z,884.00
2023-03-06T13:12:22.399Z,876.00
2023-03-06T13:13:22.365Z,864.00
2023-03-06T13:14:22.317Z,844.00
2023-03-06T13:15:22.271Z,844.00
2023-03-06T13:16:22.263Z,839.00
2023-03-06T13:32:21.723Z,787.00
2023-03-06T13:44:21.216Z,715.00
2023-03-06T13:45:21.201Z,707.00
2023-03-06T13:46:21.195Z,674.00
2023-03-06T13:47:21.175Z,654.00
2023-03-06T13:48:41.512Z,646.00
2023-03-06T13:49:22.106Z,639.00
2023-03-06T13:50:21.093Z,635.00
2023-03-06T13:51:21.037Z,636.00
2023-03-06T13:52:21.016Z,635.00
2023-03-06T13:53:20.922Z,637.00
2023-03-06T13:54:20.967Z,640.00
2023-03-06T13:55:20.911Z,654.00
2023-03-06T13:56:20.855Z,653.00
2023-03-06T13:57:20.836Z,648.00
2023-03-06T13:58:20.783Z,642.00
2023-03-06T13:59:20.785Z,640.00
2023-03-06T14:00:20.747Z,638.00
2023-03-06T14:01:20.746Z,636.00
2023-03-06T14:02:20.731Z,631.00
2023-03-06T14:03:20.660Z,631.00
2023-03-06T14:04:20.587Z,628.00
2023-03-06T14:05:20.712Z,629.00
2023-03-06T14:06:20.577Z,629.00
2023-03-06T14:07:20.557Z,632.00
2023-03-06T14:08:20.500Z,632.00
2023-03-06T14:09:20.494Z,628.00
2023-03-06T14:10:20.513Z,621.00
2023-03-06T14:11:20.515Z,616.00
2023-03-06T14:12:20.509Z,614.00
2023-03-06T14:13:20.497Z,612.00
2023-03-06T14:14:20.551Z,611.00
2023-03-06T14:17:20.593Z,606.00
2023-03-06T14:18:20.604Z,607.00
2023-03-06T14:19:20.592Z,601.00
2023-03-06T14:20:20.604Z,598.00
2023-03-06T15:30:21.289Z,502.00
2023-03-06T20:08:28.830Z,458.00